PWSweather.com
Personal Weather Stations
Station Observations
PITCARMI1
La Serra, CarmignanoIT 59015

La SerraCarmignanoIT 59015

Lat: 43.804429, Lon: 11.027222

Elevation: 525

Station Type: Davis Vantage Vue

http://www.meteocarmignano.it

Latest ConditionsUpdated 10:30:11 AM GMT+01:01 Monday, Apr 21, 2014
Currently Today's Max Today's Min Today's Average
Temperature 61.6°F16.4°C 61.6°F16.4°C 53.0°F11.7°C 55.3°F12.9°C
Dew Point 50.1°F10.1°C 51.1°F10.6°C 48.9°F9.4°C 49.7°F9.8°C
Winds 0.6 mph NNE1.0 kmh NNE 1.9 mph NE3.1 kmh NE - 0.4 mph 0.6 kmh
Wind Gusts 4.0 mph6.4 kmh 4.0 mph6.4 kmh - -
Humidity 66% 87% 66% 82%
Pressure 29.68 in1005.1 mb 29.72 in1006.4 mb 29.66 in1004.4 mb -
Hour Temp Dew Point Humidity Winds Wind Gusts Pressure Precip Precip Rate Daily Precip Total
10:30 AM 61.6°F16.4°C 50.1°F10.1°C 66% 0.6 mph NNE1.0 kmh NNE 4.0 mph6.4 kmh 29.68 in1005.1 mb 0.00 in0.0 mm 0.00 in/hr0.0 mm/hr 0.00 in0.0 mm
10:00 AM 60.7°F15.9°C 50.1°F10.1°C 68% 1.6 mph N2.6 kmh N 3.0 mph4.8 kmh 29.68 in1005.1 mb 0.00 in0.0 mm 0.00 in/hr0.0 mm/hr 0.00 in0.0 mm
09:30 AM 59.6°F15.3°C 50.2°F10.1°C 71% 1.9 mph NE3.1 kmh NE 3.0 mph4.8 kmh 29.68 in1005.1 mb 0.00 in0.0 mm 0.00 in/hr0.0 mm/hr 0.00 in0.0 mm
09:00 AM 58.3°F14.6°C 49.3°F9.6°C 72% 0.1 mph E0.2 kmh E 1.0 mph1.6 kmh 29.68 in1005.1 mb 0.00 in0.0 mm 0.00 in/hr0.0 mm/hr 0.00 in0.0 mm
08:30 AM 57.5°F14.2°C 50.0°F10.0°C 76% 0.1 mph NNE0.2 kmh NNE 1.0 mph1.6 kmh 29.68 in1005.1 mb 0.00 in0.0 mm 0.00 in/hr0.0 mm/hr 0.00 in0.0 mm
08:00 AM 56.2°F13.4°C 51.1°F10.6°C 83% 1.0 mph W1.6 kmh W 1.0 mph1.6 kmh 29.68 in1005.1 mb 0.00 in0.0 mm 0.00 in/hr0.0 mm/hr 0.00 in0.0 mm
07:30 AM 55.5°F13.1°C 51.1°F10.6°C 85% Calm Calm -- 29.68 in1005.1 mb 0.00 in0.0 mm 0.00 in/hr0.0 mm/hr 0.00 in0.0 mm
07:00 AM 54.3°F12.4°C 49.5°F9.7°C 84% 1.5 mph NNE2.4 kmh NNE 2.0 mph3.2 kmh 29.68 in1005.1 mb 0.00 in0.0 mm 0.00 in/hr0.0 mm/hr 0.00 in0.0 mm
06:30 AM 54.2°F12.3°C 49.5°F9.7°C 84% Calm Calm -- 29.68 in1005.1 mb 0.00 in0.0 mm 0.00 in/hr0.0 mm/hr 0.00 in0.0 mm
06:00 AM 53.5°F11.9°C 49.1°F9.5°C 85% Calm Calm -- 29.68 in1005.1 mb 0.00 in0.0 mm 0.00 in/hr0.0 mm/hr 0.00 in0.0 mm
05:30 AM 53.0°F11.7°C 48.9°F9.4°C 86% Calm Calm -- 29.67 in1004.7 mb 0.00 in0.0 mm 0.00 in/hr0.0 mm/hr 0.00 in0.0 mm
05:00 AM 53.4°F11.9°C 49.3°F9.6°C 86% Calm Calm -- 29.66 in1004.4 mb 0.00 in0.0 mm 0.00 in/hr0.0 mm/hr 0.00 in0.0 mm
04:30 AM 53.6°F12.0°C 49.2°F9.6°C 85% Calm Calm -- 29.66 in1004.4 mb 0.00 in0.0 mm 0.00 in/hr0.0 mm/hr 0.00 in0.0 mm
04:00 AM 53.8°F12.1°C 49.1°F9.5°C 84% Calm Calm -- 29.67 in1004.7 mb 0.00 in0.0 mm 0.00 in/hr0.0 mm/hr 0.00 in0.0 mm
03:30 AM 54.1°F12.3°C 49.4°F9.7°C 84% Calm Calm -- 29.68 in1005.1 mb 0.00 in0.0 mm 0.00 in/hr0.0 mm/hr 0.00 in0.0 mm
03:00 AM 53.6°F12.0°C 49.5°F9.7°C 86% 0.2 mph WSW0.3 kmh WSW -- 29.68 in1005.1 mb 0.00 in0.0 mm 0.00 in/hr0.0 mm/hr 0.00 in0.0 mm
02:30 AM 53.1°F11.7°C 49.4°F9.7°C 87% Calm Calm -- 29.69 in1005.4 mb 0.00 in0.0 mm 0.00 in/hr0.0 mm/hr 0.00 in0.0 mm
02:00 AM 53.8°F12.1°C 49.4°F9.7°C 85% Calm Calm -- 29.70 in1005.8 mb 0.00 in0.0 mm 0.00 in/hr0.0 mm/hr 0.00 in0.0 mm
01:30 AM 54.1°F12.3°C 49.3°F9.6°C 84% Calm Calm -- 29.70 in1005.8 mb 0.00 in0.0 mm 0.00 in/hr0.0 mm/hr 0.00 in0.0 mm
01:00 AM 54.3°F12.4°C 49.5°F9.7°C 84% 0.1 mph SW0.2 kmh SW 1.0 mph1.6 kmh 29.70 in1005.8 mb 0.00 in0.0 mm 0.00 in/hr0.0 mm/hr 0.00 in0.0 mm
12:30 AM 54.5°F12.5°C 49.8°F9.9°C 84% 0.4 mph SE0.6 kmh SE 1.0 mph1.6 kmh 29.71 in1006.1 mb 0.00 in0.0 mm 0.00 in/hr0.0 mm/hr 0.00 in0.0 mm
12:00 AM 54.2°F12.3°C 49.8°F9.9°C 85% 0.9 mph SW1.4 kmh SW 1.0 mph1.6 kmh 29.72 in1006.4 mb 0.00 in0.0 mm 0.00 in/hr0.0 mm/hr 0.00 in0.0 mm